KBIX/BIX METAR and TAF weather

Enter ICAO airport designator
Station Type Date Time Source
KBIX METAR 2021/09/28 02:56 UTC NOAA

KBIX 280256Z AUTO 16004KT 10SM SCT100 25/23 A3002 RMK AO2 SLP169 T02530233 50005


Station Type Date Time Source
KBIX Decoded METAR 2021/09/28 02:56 UTC NOAA

Keesler Air Force Base / Biloxi, MS, United States (KBIX) 30-25N 088-55W
Sep 27, 2021 - 10:56 PM EDT / 2021.09.28 0256 UTC
Wind: from the SSE (160 degrees) at 5 MPH (4 KT):0
Visibility: 10 mile(s):0
Sky conditions: partly cloudy
Temperature: 77.5 F (25.3 C)
Dew Point: 73.9 F (23.3 C)
Relative Humidity: 88%
Pressure (altimeter): 30.02 in. Hg (1016 hPa)
Pressure tendency: 0.01 inches (0.5 hPa) higher than three hours ago
ob: KBIX 280256Z AUTO 16004KT 10SM SCT100 25/23 A3002 RMK AO2 SLP169 T02530233 50005
cycle: 3

Station Type Date Time Source
KBIX TAF 2021/09/28 02:07 UTC NOAA

TAF KBIX 280200Z 2802/2908 VRB06KT 8000 BR FEW050 BKN065 OVC090 QNH3001INS
BECMG 2807/2808 VRB06KT 8000 BR SCT011 BKN025 BKN040 QNH2999INS
BECMG 2816/2817 VRB06KT 9999 VCSH SCT011 OVC020 QNH3000INS
BECMG 2820/2821 VRB06KT 8000 -SHRA FEW018 BKN026 BKN040 QNH2993INS
BECMG 2822/2823 VRB06KT 8000 BR BKN018 OVC026 QNH2994INS TX26/2818Z TN23/2812Z LAST NO
AMDS AFT 2804 NEXT 2810

Example: see airport list